sensor_id;sensor_type;location;lat;lon;timestamp;P1;durP1;ratioP1;P2;durP2;ratioP2
57643;SDS011;43474;46.510;6.686;2024-01-30T00:02:14;4.80;;;3.08;;
57643;SDS011;43474;46.510;6.686;2024-01-30T00:04:40;6.18;;;3.10;;
57643;SDS011;43474;46.510;6.686;2024-01-30T00:07:06;4.63;;;3.63;;
57643;SDS011;43474;46.510;6.686;2024-01-30T00:09:32;5.35;;;3.28;;
57643;SDS011;43474;46.510;6.686;2024-01-30T00:11:57;6.43;;;4.07;;
57643;SDS011;43474;46.510;6.686;2024-01-30T00:14:23;3.70;;;3.03;;
57643;SDS011;43474;46.510;6.686;2024-01-30T00:16:50;4.72;;;3.75;;
57643;SDS011;43474;46.510;6.686;2024-01-30T00:19:17;6.55;;;3.03;;
57643;SDS011;43474;46.510;6.686;2024-01-30T00:21:43;6.60;;;3.35;;
57643;SDS011;43474;46.510;6.686;2024-01-30T00:24:09;4.40;;;2.75;;
57643;SDS011;43474;46.510;6.686;2024-01-30T00:26:34;6.85;;;4.30;;
57643;SDS011;43474;46.510;6.686;2024-01-30T00:29:00;6.38;;;3.20;;
57643;SDS011;43474;46.510;6.686;2024-01-30T00:31:26;7.22;;;3.15;;
57643;SDS011;43474;46.510;6.686;2024-01-30T00:33:52;4.45;;;3.95;;
57643;SDS011;43474;46.510;6.686;2024-01-30T00:36:18;5.35;;;3.65;;
57643;SDS011;43474;46.510;6.686;2024-01-30T00:38:43;13.55;;;4.28;;
57643;SDS011;43474;46.510;6.686;2024-01-30T00:41:09;6.65;;;3.92;;
57643;SDS011;43474;46.510;6.686;2024-01-30T00:43:35;5.75;;;3.95;;
57643;SDS011;43474;46.510;6.686;2024-01-30T00:46:01;5.13;;;4.03;;
57643;SDS011;43474;46.510;6.686;2024-01-30T00:48:27;4.18;;;2.90;;
57643;SDS011;43474;46.510;6.686;2024-01-30T00:50:53;8.45;;;3.85;;
57643;SDS011;43474;46.510;6.686;2024-01-30T00:53:19;7.38;;;4.68;;
57643;SDS011;43474;46.510;6.686;2024-01-30T00:55:44;8.27;;;3.70;;
57643;SDS011;43474;46.510;6.686;2024-01-30T00:58:10;9.10;;;4.65;;
57643;SDS011;43474;46.510;6.686;2024-01-30T01:00:36;9.75;;;3.22;;
57643;SDS011;43474;46.510;6.686;2024-01-30T01:03:02;9.07;;;2.67;;
57643;SDS011;43474;46.510;6.686;2024-01-30T01:05:28;9.02;;;5.30;;
57643;SDS011;43474;46.510;6.686;2024-01-30T01:07:55;13.38;;;3.47;;
57643;SDS011;43474;46.510;6.686;2024-01-30T01:10:20;11.20;;;5.03;;
57643;SDS011;43474;46.510;6.686;2024-01-30T01:12:47;6.90;;;3.58;;
57643;SDS011;43474;46.510;6.686;2024-01-30T01:15:13;6.68;;;3.83;;
57643;SDS011;43474;46.510;6.686;2024-01-30T01:17:39;7.30;;;4.30;;
57643;SDS011;43474;46.510;6.686;2024-01-30T01:20:05;5.43;;;4.00;;
57643;SDS011;43474;46.510;6.686;2024-01-30T01:22:32;5.05;;;4.22;;
57643;SDS011;43474;46.510;6.686;2024-01-30T01:24:59;5.60;;;3.90;;
57643;SDS011;43474;46.510;6.686;2024-01-30T01:27:25;4.38;;;3.28;;
57643;SDS011;43474;46.510;6.686;2024-01-30T01:29:51;7.05;;;5.03;;
57643;SDS011;43474;46.510;6.686;2024-01-30T01:32:18;5.95;;;3.90;;
57643;SDS011;43474;46.510;6.686;2024-01-30T01:34:44;10.80;;;4.68;;
57643;SDS011;43474;46.510;6.686;2024-01-30T01:37:10;7.82;;;3.90;;
57643;SDS011;43474;46.510;6.686;2024-01-30T01:39:38;8.05;;;3.70;;
57643;SDS011;43474;46.510;6.686;2024-01-30T01:42:04;8.45;;;4.07;;
57643;SDS011;43474;46.510;6.686;2024-01-30T01:44:29;5.18;;;3.53;;
57643;SDS011;43474;46.510;6.686;2024-01-30T01:46:55;6.57;;;4.32;;
57643;SDS011;43474;46.510;6.686;2024-01-30T01:49:26;6.40;;;3.50;;
57643;SDS011;43474;46.510;6.686;2024-01-30T01:51:53;9.37;;;4.87;;
57643;SDS011;43474;46.510;6.686;2024-01-30T01:54:21;5.80;;;3.95;;
57643;SDS011;43474;46.510;6.686;2024-01-30T01:56:48;5.13;;;3.53;;
57643;SDS011;43474;46.510;6.686;2024-01-30T01:59:17;5.95;;;4.65;;
57643;SDS011;43474;46.510;6.686;2024-01-30T02:01:44;6.85;;;3.75;;
57643;SDS011;43474;46.510;6.686;2024-01-30T02:04:11;6.20;;;3.22;;
57643;SDS011;43474;46.510;6.686;2024-01-30T02:06:38;5.05;;;3.80;;
57643;SDS011;43474;46.510;6.686;2024-01-30T02:09:04;6.57;;;4.13;;
57643;SDS011;43474;46.510;6.686;2024-01-30T02:11:30;5.15;;;3.53;;
57643;SDS011;43474;46.510;6.686;2024-01-30T02:13:56;4.82;;;4.05;;
57643;SDS011;43474;46.510;6.686;2024-01-30T02:16:21;8.35;;;3.42;;
57643;SDS011;43474;46.510;6.686;2024-01-30T02:18:47;6.88;;;4.03;;
57643;SDS011;43474;46.510;6.686;2024-01-30T02:21:15;6.80;;;4.80;;
57643;SDS011;43474;46.510;6.686;2024-01-30T02:23:44;6.20;;;3.55;;
57643;SDS011;43474;46.510;6.686;2024-01-30T02:26:12;7.47;;;3.03;;
57643;SDS011;43474;46.510;6.686;2024-01-30T02:28:38;5.63;;;3.83;;
57643;SDS011;43474;46.510;6.686;2024-01-30T02:31:04;9.02;;;3.65;;
57643;SDS011;43474;46.510;6.686;2024-01-30T02:33:30;10.25;;;4.20;;
57643;SDS011;43474;46.510;6.686;2024-01-30T02:35:56;10.32;;;3.35;;
57643;SDS011;43474;46.510;6.686;2024-01-30T02:38:21;5.90;;;2.83;;
57643;SDS011;43474;46.510;6.686;2024-01-30T02:40:48;4.25;;;2.55;;
57643;SDS011;43474;46.510;6.686;2024-01-30T02:43:15;5.30;;;3.13;;
57643;SDS011;43474;46.510;6.686;2024-01-30T02:45:42;6.97;;;3.85;;
57643;SDS011;43474;46.510;6.686;2024-01-30T02:48:07;5.45;;;2.67;;
57643;SDS011;43474;46.510;6.686;2024-01-30T02:50:34;6.88;;;3.58;;
57643;SDS011;43474;46.510;6.686;2024-01-30T02:53:00;8.10;;;4.68;;
57643;SDS011;43474;46.510;6.686;2024-01-30T02:55:26;4.25;;;2.83;;
57643;SDS011;43474;46.510;6.686;2024-01-30T02:57:51;7.72;;;3.60;;
57643;SDS011;43474;46.510;6.686;2024-01-30T03:00:18;9.52;;;5.75;;
57643;SDS011;43474;46.510;6.686;2024-01-30T03:02:44;8.13;;;3.33;;
57643;SDS011;43474;46.510;6.686;2024-01-30T03:05:10;8.23;;;4.95;;
57643;SDS011;43474;46.510;6.686;2024-01-30T03:07:36;11.85;;;4.38;;
57643;SDS011;43474;46.510;6.686;2024-01-30T03:10:03;9.77;;;3.78;;
57643;SDS011;43474;46.510;6.686;2024-01-30T03:12:29;7.10;;;3.75;;
57643;SDS011;43474;46.510;6.686;2024-01-30T03:14:55;8.90;;;3.97;;
57643;SDS011;43474;46.510;6.686;2024-01-30T03:17:21;5.25;;;3.50;;
57643;SDS011;43474;46.510;6.686;2024-01-30T03:19:47;8.63;;;4.43;;
57643;SDS011;43474;46.510;6.686;2024-01-30T03:22:12;9.07;;;4.18;;
57643;SDS011;43474;46.510;6.686;2024-01-30T03:24:38;5.45;;;3.55;;
57643;SDS011;43474;46.510;6.686;2024-01-30T03:27:04;7.07;;;3.85;;
57643;SDS011;43474;46.510;6.686;2024-01-30T03:29:30;5.35;;;4.10;;
57643;SDS011;43474;46.510;6.686;2024-01-30T03:31:55;5.53;;;3.75;;
57643;SDS011;43474;46.510;6.686;2024-01-30T03:34:21;6.70;;;4.63;;
57643;SDS011;43474;46.510;6.686;2024-01-30T03:36:47;6.50;;;4.15;;
57643;SDS011;43474;46.510;6.686;2024-01-30T03:39:12;7.10;;;3.08;;
57643;SDS011;43474;46.510;6.686;2024-01-30T03:41:38;10.25;;;4.60;;
57643;SDS011;43474;46.510;6.686;2024-01-30T03:44:08;10.15;;;4.35;;
57643;SDS011;43474;46.510;6.686;2024-01-30T03:46:34;5.47;;;4.75;;
57643;SDS011;43474;46.510;6.686;2024-01-30T03:49:00;7.53;;;5.57;;
57643;SDS011;43474;46.510;6.686;2024-01-30T03:51:26;13.10;;;4.78;;
57643;SDS011;43474;46.510;6.686;2024-01-30T03:53:52;4.55;;;3.40;;
57643;SDS011;43474;46.510;6.686;2024-01-30T03:56:17;5.60;;;3.13;;
57643;SDS011;43474;46.510;6.686;2024-01-30T03:58:43;9.18;;;4.00;;
57643;SDS011;43474;46.510;6.686;2024-01-30T04:01:12;13.35;;;3.58;;
57643;SDS011;43474;46.510;6.686;2024-01-30T04:03:39;3.85;;;3.05;;
57643;SDS011;43474;46.510;6.686;2024-01-30T04:06:05;4.50;;;3.50;;
57643;SDS011;43474;46.510;6.686;2024-01-30T04:08:31;6.72;;;3.45;;
57643;SDS011;43474;46.510;6.686;2024-01-30T04:10:56;9.05;;;4.20;;
57643;SDS011;43474;46.510;6.686;2024-01-30T04:13:22;9.50;;;4.63;;
57643;SDS011;43474;46.510;6.686;2024-01-30T04:15:48;8.05;;;4.60;;
57643;SDS011;43474;46.510;6.686;2024-01-30T04:18:14;8.00;;;4.43;;
57643;SDS011;43474;46.510;6.686;2024-01-30T04:20:39;18.48;;;4.68;;
57643;SDS011;43474;46.510;6.686;2024-01-30T04:23:05;3.75;;;2.60;;
57643;SDS011;43474;46.510;6.686;2024-01-30T04:25:31;9.52;;;4.10;;
57643;SDS011;43474;46.510;6.686;2024-01-30T04:27:57;10.27;;;5.28;;
57643;SDS011;43474;46.510;6.686;2024-01-30T04:30:22;7.55;;;4.75;;
57643;SDS011;43474;46.510;6.686;2024-01-30T04:32:48;6.57;;;4.53;;
57643;SDS011;43474;46.510;6.686;2024-01-30T04:35:14;6.95;;;4.60;;
57643;SDS011;43474;46.510;6.686;2024-01-30T04:37:40;8.13;;;3.97;;
57643;SDS011;43474;46.510;6.686;2024-01-30T04:40:05;5.80;;;2.72;;
57643;SDS011;43474;46.510;6.686;2024-01-30T04:42:32;7.22;;;4.28;;
57643;SDS011;43474;46.510;6.686;2024-01-30T04:44:58;6.40;;;3.72;;
57643;SDS011;43474;46.510;6.686;2024-01-30T04:47:23;7.72;;;3.28;;
57643;SDS011;43474;46.510;6.686;2024-01-30T04:49:51;6.05;;;3.63;;
57643;SDS011;43474;46.510;6.686;2024-01-30T04:52:17;4.85;;;4.38;;
57643;SDS011;43474;46.510;6.686;2024-01-30T04:54:42;6.20;;;4.75;;
57643;SDS011;43474;46.510;6.686;2024-01-30T04:57:08;6.78;;;4.70;;
57643;SDS011;43474;46.510;6.686;2024-01-30T04:59:37;9.23;;;4.38;;
57643;SDS011;43474;46.510;6.686;2024-01-30T05:02:03;9.25;;;4.38;;
57643;SDS011;43474;46.510;6.686;2024-01-30T05:04:29;6.78;;;4.25;;
57643;SDS011;43474;46.510;6.686;2024-01-30T05:06:55;11.65;;;4.95;;
57643;SDS011;43474;46.510;6.686;2024-01-30T05:09:21;7.20;;;3.60;;
57643;SDS011;43474;46.510;6.686;2024-01-30T05:11:46;8.60;;;5.03;;
57643;SDS011;43474;46.510;6.686;2024-01-30T05:14:12;5.95;;;4.35;;
57643;SDS011;43474;46.510;6.686;2024-01-30T05:16:40;8.38;;;5.20;;
57643;SDS011;43474;46.510;6.686;2024-01-30T05:19:06;7.75;;;4.63;;
57643;SDS011;43474;46.510;6.686;2024-01-30T05:21:32;8.63;;;4.65;;
57643;SDS011;43474;46.510;6.686;2024-01-30T05:23:58;8.27;;;4.20;;
57643;SDS011;43474;46.510;6.686;2024-01-30T05:26:25;5.18;;;2.88;;
57643;SDS011;43474;46.510;6.686;2024-01-30T05:28:51;5.95;;;3.40;;
57643;SDS011;43474;46.510;6.686;2024-01-30T05:31:17;4.78;;;2.92;;
57643;SDS011;43474;46.510;6.686;2024-01-30T05:33:43;5.40;;;3.35;;
57643;SDS011;43474;46.510;6.686;2024-01-30T05:36:11;5.28;;;3.22;;
57643;SDS011;43474;46.510;6.686;2024-01-30T05:38:37;14.20;;;5.20;;
57643;SDS011;43474;46.510;6.686;2024-01-30T05:41:03;5.53;;;4.03;;
57643;SDS011;43474;46.510;6.686;2024-01-30T05:43:29;10.45;;;3.97;;
57643;SDS011;43474;46.510;6.686;2024-01-30T05:45:55;6.82;;;4.15;;
57643;SDS011;43474;46.510;6.686;2024-01-30T05:48:21;8.68;;;5.28;;
57643;SDS011;43474;46.510;6.686;2024-01-30T05:50:47;7.50;;;4.30;;
57643;SDS011;43474;46.510;6.686;2024-01-30T05:53:12;7.32;;;3.35;;
57643;SDS011;43474;46.510;6.686;2024-01-30T05:55:38;8.90;;;4.32;;
57643;SDS011;43474;46.510;6.686;2024-01-30T05:58:04;7.88;;;3.60;;
57643;SDS011;43474;46.510;6.686;2024-01-30T06:00:30;7.22;;;4.28;;
57643;SDS011;43474;46.510;6.686;2024-01-30T06:02:55;10.70;;;5.57;;
57643;SDS011;43474;46.510;6.686;2024-01-30T06:05:21;13.38;;;4.43;;
57643;SDS011;43474;46.510;6.686;2024-01-30T06:07:47;9.07;;;4.57;;
57643;SDS011;43474;46.510;6.686;2024-01-30T06:10:13;8.40;;;4.65;;
57643;SDS011;43474;46.510;6.686;2024-01-30T06:12:39;24.60;;;5.55;;
57643;SDS011;43474;46.510;6.686;2024-01-30T06:15:05;4.50;;;4.03;;
57643;SDS011;43474;46.510;6.686;2024-01-30T06:17:32;9.32;;;4.45;;
57643;SDS011;43474;46.510;6.686;2024-01-30T06:19:58;7.65;;;4.18;;
57643;SDS011;43474;46.510;6.686;2024-01-30T06:22:23;6.05;;;3.70;;
57643;SDS011;43474;46.510;6.686;2024-01-30T06:24:49;7.80;;;5.32;;
57643;SDS011;43474;46.510;6.686;2024-01-30T06:27:15;7.32;;;4.63;;
57643;SDS011;43474;46.510;6.686;2024-01-30T06:29:43;7.05;;;4.10;;
57643;SDS011;43474;46.510;6.686;2024-01-30T06:32:08;8.82;;;5.32;;
57643;SDS011;43474;46.510;6.686;2024-01-30T06:34:35;9.27;;;5.32;;
57643;SDS011;43474;46.510;6.686;2024-01-30T06:37:01;10.52;;;3.58;;
57643;SDS011;43474;46.510;6.686;2024-01-30T06:39:27;8.55;;;4.63;;
57643;SDS011;43474;46.510;6.686;2024-01-30T06:41:53;5.45;;;3.67;;
57643;SDS011;43474;46.510;6.686;2024-01-30T06:44:19;7.90;;;4.05;;
57643;SDS011;43474;46.510;6.686;2024-01-30T06:46:44;7.10;;;3.90;;
57643;SDS011;43474;46.510;6.686;2024-01-30T06:49:12;9.27;;;5.03;;
57643;SDS011;43474;46.510;6.686;2024-01-30T06:51:38;8.93;;;4.10;;
57643;SDS011;43474;46.510;6.686;2024-01-30T06:54:06;16.05;;;4.72;;
57643;SDS011;43474;46.510;6.686;2024-01-30T06:56:31;6.80;;;4.22;;
57643;SDS011;43474;46.510;6.686;2024-01-30T06:58:57;10.95;;;4.30;;
57643;SDS011;43474;46.510;6.686;2024-01-30T07:01:28;7.28;;;4.40;;
57643;SDS011;43474;46.510;6.686;2024-01-30T07:03:55;4.50;;;4.07;;
57643;SDS011;43474;46.510;6.686;2024-01-30T07:06:21;9.80;;;5.05;;
57643;SDS011;43474;46.510;6.686;2024-01-30T07:08:48;8.68;;;5.05;;
57643;SDS011;43474;46.510;6.686;2024-01-30T07:11:21;6.68;;;5.18;;
57643;SDS011;43474;46.510;6.686;2024-01-30T07:13:47;8.73;;;4.70;;
57643;SDS011;43474;46.510;6.686;2024-01-30T07:16:14;8.43;;;4.28;;
57643;SDS011;43474;46.510;6.686;2024-01-30T07:18:40;16.25;;;6.95;;
57643;SDS011;43474;46.510;6.686;2024-01-30T07:21:06;13.43;;;6.70;;
57643;SDS011;43474;46.510;6.686;2024-01-30T07:23:32;7.25;;;5.55;;
57643;SDS011;43474;46.510;6.686;2024-01-30T07:25:59;12.50;;;5.57;;
57643;SDS011;43474;46.510;6.686;2024-01-30T07:28:25;8.60;;;5.70;;
57643;SDS011;43474;46.510;6.686;2024-01-30T07:30:50;7.25;;;4.65;;
57643;SDS011;43474;46.510;6.686;2024-01-30T07:33:16;6.88;;;4.22;;
57643;SDS011;43474;46.510;6.686;2024-01-30T07:35:42;6.50;;;4.80;;
57643;SDS011;43474;46.510;6.686;2024-01-30T07:38:07;7.10;;;4.53;;
57643;SDS011;43474;46.510;6.686;2024-01-30T07:40:33;7.90;;;4.95;;
57643;SDS011;43474;46.510;6.686;2024-01-30T07:42:59;7.00;;;3.65;;
57643;SDS011;43474;46.510;6.686;2024-01-30T07:45:26;10.35;;;5.68;;
57643;SDS011;43474;46.510;6.686;2024-01-30T07:47:53;11.90;;;3.72;;
57643;SDS011;43474;46.510;6.686;2024-01-30T07:50:18;9.05;;;4.97;;
57643;SDS011;43474;46.510;6.686;2024-01-30T07:52:44;9.38;;;5.72;;
57643;SDS011;43474;46.510;6.686;2024-01-30T07:55:10;8.40;;;5.75;;
57643;SDS011;43474;46.510;6.686;2024-01-30T07:57:38;9.60;;;6.03;;
57643;SDS011;43474;46.510;6.686;2024-01-30T08:00:04;9.85;;;5.35;;
57643;SDS011;43474;46.510;6.686;2024-01-30T08:02:32;8.95;;;5.45;;
57643;SDS011;43474;46.510;6.686;2024-01-30T08:04:58;13.50;;;7.03;;
57643;SDS011;43474;46.510;6.686;2024-01-30T08:07:24;12.02;;;6.53;;
57643;SDS011;43474;46.510;6.686;2024-01-30T08:09:50;11.57;;;5.65;;
57643;SDS011;43474;46.510;6.686;2024-01-30T08:12:16;12.93;;;6.60;;
57643;SDS011;43474;46.510;6.686;2024-01-30T08:14:42;17.02;;;6.90;;
57643;SDS011;43474;46.510;6.686;2024-01-30T08:17:08;20.60;;;7.45;;
57643;SDS011;43474;46.510;6.686;2024-01-30T08:19:33;12.13;;;7.07;;
57643;SDS011;43474;46.510;6.686;2024-01-30T08:21:59;10.82;;;4.93;;
57643;SDS011;43474;46.510;6.686;2024-01-30T08:24:25;8.10;;;5.88;;
57643;SDS011;43474;46.510;6.686;2024-01-30T08:26:51;10.65;;;6.82;;
57643;SDS011;43474;46.510;6.686;2024-01-30T08:29:16;12.65;;;6.25;;
57643;SDS011;43474;46.510;6.686;2024-01-30T08:31:42;20.20;;;6.38;;
57643;SDS011;43474;46.510;6.686;2024-01-30T08:34:09;14.55;;;5.95;;
57643;SDS011;43474;46.510;6.686;2024-01-30T08:36:35;8.82;;;5.55;;
57643;SDS011;43474;46.510;6.686;2024-01-30T08:39:01;10.38;;;6.13;;
57643;SDS011;43474;46.510;6.686;2024-01-30T08:41:27;9.48;;;5.40;;
57643;SDS011;43474;46.510;6.686;2024-01-30T08:43:53;12.38;;;6.43;;
57643;SDS011;43474;46.510;6.686;2024-01-30T08:46:19;13.20;;;6.13;;
57643;SDS011;43474;46.510;6.686;2024-01-30T08:48:46;11.50;;;5.80;;
57643;SDS011;43474;46.510;6.686;2024-01-30T08:51:13;14.80;;;5.90;;
57643;SDS011;43474;46.510;6.686;2024-01-30T08:53:40;11.20;;;6.35;;
57643;SDS011;43474;46.510;6.686;2024-01-30T08:56:06;12.50;;;5.90;;
57643;SDS011;43474;46.510;6.686;2024-01-30T08:58:32;13.00;;;6.38;;
57643;SDS011;43474;46.510;6.686;2024-01-30T09:00:58;11.48;;;5.43;;
57643;SDS011;43474;46.510;6.686;2024-01-30T09:03:24;9.60;;;6.07;;
57643;SDS011;43474;46.510;6.686;2024-01-30T09:05:50;10.07;;;5.85;;
57643;SDS011;43474;46.510;6.686;2024-01-30T09:08:16;16.83;;;6.25;;
57643;SDS011;43474;46.510;6.686;2024-01-30T09:10:42;12.82;;;7.00;;
57643;SDS011;43474;46.510;6.686;2024-01-30T09:13:08;15.15;;;6.15;;
57643;SDS011;43474;46.510;6.686;2024-01-30T09:15:34;10.40;;;6.15;;
57643;SDS011;43474;46.510;6.686;2024-01-30T09:18:00;15.13;;;6.63;;
57643;SDS011;43474;46.510;6.686;2024-01-30T09:20:26;12.57;;;6.43;;
57643;SDS011;43474;46.510;6.686;2024-01-30T09:22:52;15.20;;;6.30;;
57643;SDS011;43474;46.510;6.686;2024-01-30T09:25:17;15.73;;;6.25;;
57643;SDS011;43474;46.510;6.686;2024-01-30T09:27:44;17.45;;;6.93;;
57643;SDS011;43474;46.510;6.686;2024-01-30T09:30:10;11.40;;;6.78;;
57643;SDS011;43474;46.510;6.686;2024-01-30T09:32:35;11.80;;;6.55;;
57643;SDS011;43474;46.510;6.686;2024-01-30T09:35:01;15.40;;;6.72;;
57643;SDS011;43474;46.510;6.686;2024-01-30T09:37:27;12.00;;;6.47;;
57643;SDS011;43474;46.510;6.686;2024-01-30T09:39:53;11.98;;;6.65;;
57643;SDS011;43474;46.510;6.686;2024-01-30T09:42:33;12.02;;;6.05;;
57643;SDS011;43474;46.510;6.686;2024-01-30T09:45:01;11.30;;;5.75;;
57643;SDS011;43474;46.510;6.686;2024-01-30T09:47:30;16.98;;;7.30;;
57643;SDS011;43474;46.510;6.686;2024-01-30T09:49:57;13.30;;;6.57;;
57643;SDS011;43474;46.510;6.686;2024-01-30T09:52:24;11.10;;;6.75;;
57643;SDS011;43474;46.510;6.686;2024-01-30T09:54:51;13.70;;;6.63;;
57643;SDS011;43474;46.510;6.686;2024-01-30T09:57:17;13.70;;;6.63;;
57643;SDS011;43474;46.510;6.686;2024-01-30T09:59:43;12.45;;;6.88;;
57643;SDS011;43474;46.510;6.686;2024-01-30T10:02:09;15.88;;;6.93;;
57643;SDS011;43474;46.510;6.686;2024-01-30T10:04:35;13.00;;;7.18;;
57643;SDS011;43474;46.510;6.686;2024-01-30T10:07:04;12.15;;;6.22;;
57643;SDS011;43474;46.510;6.686;2024-01-30T10:09:33;13.88;;;7.63;;
57643;SDS011;43474;46.510;6.686;2024-01-30T10:11:59;14.00;;;6.70;;
57643;SDS011;43474;46.510;6.686;2024-01-30T10:14:26;12.98;;;6.97;;
57643;SDS011;43474;46.510;6.686;2024-01-30T10:16:52;12.55;;;6.40;;
57643;SDS011;43474;46.510;6.686;2024-01-30T10:19:18;14.13;;;7.47;;
57643;SDS011;43474;46.510;6.686;2024-01-30T10:21:44;14.23;;;7.18;;
57643;SDS011;43474;46.510;6.686;2024-01-30T10:24:12;14.38;;;6.95;;
57643;SDS011;43474;46.510;6.686;2024-01-30T10:26:40;12.65;;;6.38;;
57643;SDS011;43474;46.510;6.686;2024-01-30T10:29:09;17.08;;;6.68;;
57643;SDS011;43474;46.510;6.686;2024-01-30T10:31:34;13.30;;;7.07;;
57643;SDS011;43474;46.510;6.686;2024-01-30T10:34:01;15.27;;;6.80;;
57643;SDS011;43474;46.510;6.686;2024-01-30T10:36:29;17.55;;;8.32;;
57643;SDS011;43474;46.510;6.686;2024-01-30T10:39:00;16.42;;;8.07;;
57643;SDS011;43474;46.510;6.686;2024-01-30T10:41:27;12.80;;;6.82;;
57643;SDS011;43474;46.510;6.686;2024-01-30T10:44:03;11.00;;;6.63;;
57643;SDS011;43474;46.510;6.686;2024-01-30T10:46:34;13.75;;;7.50;;
57643;SDS011;43474;46.510;6.686;2024-01-30T10:49:01;11.82;;;7.38;;
57643;SDS011;43474;46.510;6.686;2024-01-30T10:51:27;13.27;;;6.93;;
57643;SDS011;43474;46.510;6.686;2024-01-30T10:53:54;11.20;;;6.22;;
57643;SDS011;43474;46.510;6.686;2024-01-30T10:56:24;12.45;;;7.20;;
57643;SDS011;43474;46.510;6.686;2024-01-30T10:58:53;15.73;;;7.47;;
57643;SDS011;43474;46.510;6.686;2024-01-30T11:01:21;13.00;;;6.82;;
57643;SDS011;43474;46.510;6.686;2024-01-30T11:03:51;10.35;;;6.88;;
57643;SDS011;43474;46.510;6.686;2024-01-30T11:06:18;11.77;;;6.53;;
57643;SDS011;43474;46.510;6.686;2024-01-30T11:09:00;13.02;;;6.90;;
57643;SDS011;43474;46.510;6.686;2024-01-30T11:13:55;12.32;;;6.30;;
57643;SDS011;43474;46.510;6.686;2024-01-30T11:16:20;12.82;;;6.93;;
57643;SDS011;43474;46.510;6.686;2024-01-30T11:18:50;13.10;;;6.10;;
57643;SDS011;43474;46.510;6.686;2024-01-30T11:21:17;15.43;;;7.03;;
57643;SDS011;43474;46.510;6.686;2024-01-30T11:23:43;11.90;;;6.10;;
57643;SDS011;43474;46.510;6.686;2024-01-30T11:26:11;10.48;;;6.50;;
57643;SDS011;43474;46.510;6.686;2024-01-30T11:28:37;12.00;;;7.30;;
57643;SDS011;43474;46.510;6.686;2024-01-30T11:31:04;12.55;;;7.20;;
57643;SDS011;43474;46.510;6.686;2024-01-30T11:33:32;16.33;;;7.28;;
57643;SDS011;43474;46.510;6.686;2024-01-30T11:36:00;15.85;;;6.95;;
57643;SDS011;43474;46.510;6.686;2024-01-30T11:38:26;11.40;;;6.68;;
57643;SDS011;43474;46.510;6.686;2024-01-30T11:40:54;11.93;;;6.47;;
57643;SDS011;43474;46.510;6.686;2024-01-30T11:43:22;14.73;;;7.35;;
57643;SDS011;43474;46.510;6.686;2024-01-30T11:45:48;10.98;;;7.45;;
57643;SDS011;43474;46.510;6.686;2024-01-30T11:48:14;11.48;;;7.32;;
57643;SDS011;43474;46.510;6.686;2024-01-30T11:50:40;11.75;;;7.35;;
57643;SDS011;43474;46.510;6.686;2024-01-30T11:53:10;12.48;;;6.97;;
57643;SDS011;43474;46.510;6.686;2024-01-30T11:55:36;12.35;;;7.05;;
57643;SDS011;43474;46.510;6.686;2024-01-30T11:58:03;15.85;;;7.45;;
57643;SDS011;43474;46.510;6.686;2024-01-30T12:00:32;17.83;;;6.80;;
57643;SDS011;43474;46.510;6.686;2024-01-30T12:02:58;17.90;;;8.20;;
57643;SDS011;43474;46.510;6.686;2024-01-30T12:05:26;16.40;;;7.55;;
57643;SDS011;43474;46.510;6.686;2024-01-30T12:07:52;16.15;;;7.50;;
57643;SDS011;43474;46.510;6.686;2024-01-30T12:10:18;11.07;;;6.13;;
57643;SDS011;43474;46.510;6.686;2024-01-30T12:12:48;16.27;;;8.02;;
57643;SDS011;43474;46.510;6.686;2024-01-30T12:15:15;20.17;;;8.33;;
57643;SDS011;43474;46.510;6.686;2024-01-30T12:17:42;14.55;;;7.43;;
57643;SDS011;43474;46.510;6.686;2024-01-30T12:20:11;17.60;;;7.25;;
57643;SDS011;43474;46.510;6.686;2024-01-30T12:22:43;18.80;;;7.22;;
57643;SDS011;43474;46.510;6.686;2024-01-30T12:25:11;18.42;;;7.55;;
57643;SDS011;43474;46.510;6.686;2024-01-30T12:27:39;12.75;;;7.13;;
57643;SDS011;43474;46.510;6.686;2024-01-30T12:30:06;15.93;;;8.00;;
57643;SDS011;43474;46.510;6.686;2024-01-30T12:32:42;16.23;;;8.27;;
57643;SDS011;43474;46.510;6.686;2024-01-30T12:35:12;17.30;;;7.85;;
57643;SDS011;43474;46.510;6.686;2024-01-30T12:37:40;17.00;;;8.00;;
57643;SDS011;43474;46.510;6.686;2024-01-30T12:40:09;16.15;;;8.20;;
57643;SDS011;43474;46.510;6.686;2024-01-30T12:42:37;14.05;;;7.97;;
57643;SDS011;43474;46.510;6.686;2024-01-30T12:45:03;12.68;;;7.65;;
57643;SDS011;43474;46.510;6.686;2024-01-30T12:47:33;16.17;;;8.38;;
57643;SDS011;43474;46.510;6.686;2024-01-30T12:49:59;13.88;;;7.32;;
57643;SDS011;43474;46.510;6.686;2024-01-30T12:52:25;15.68;;;7.85;;
57643;SDS011;43474;46.510;6.686;2024-01-30T12:54:51;11.02;;;6.57;;
57643;SDS011;43474;46.510;6.686;2024-01-30T12:57:18;15.18;;;7.43;;
57643;SDS011;43474;46.510;6.686;2024-01-30T12:59:44;11.43;;;6.63;;
57643;SDS011;43474;46.510;6.686;2024-01-30T13:02:14;14.15;;;6.75;;
57643;SDS011;43474;46.510;6.686;2024-01-30T13:04:41;11.32;;;6.40;;
57643;SDS011;43474;46.510;6.686;2024-01-30T13:07:08;14.65;;;7.82;;
57643;SDS011;43474;46.510;6.686;2024-01-30T13:09:34;14.20;;;7.65;;
57643;SDS011;43474;46.510;6.686;2024-01-30T13:12:01;17.05;;;7.15;;
57643;SDS011;43474;46.510;6.686;2024-01-30T13:14:30;16.05;;;7.25;;
57643;SDS011;43474;46.510;6.686;2024-01-30T13:16:57;13.85;;;7.03;;
57643;SDS011;43474;46.510;6.686;2024-01-30T13:19:23;12.55;;;6.30;;
57643;SDS011;43474;46.510;6.686;2024-01-30T13:21:49;11.85;;;7.40;;
57643;SDS011;43474;46.510;6.686;2024-01-30T13:24:15;14.55;;;7.32;;
57643;SDS011;43474;46.510;6.686;2024-01-30T13:26:44;13.55;;;7.82;;
57643;SDS011;43474;46.510;6.686;2024-01-30T13:29:10;13.00;;;7.18;;
57643;SDS011;43474;46.510;6.686;2024-01-30T13:31:37;13.60;;;7.25;;
57643;SDS011;43474;46.510;6.686;2024-01-30T13:34:05;14.45;;;7.25;;
57643;SDS011;43474;46.510;6.686;2024-01-30T13:36:32;13.20;;;6.45;;
57643;SDS011;43474;46.510;6.686;2024-01-30T13:38:59;16.92;;;7.20;;
57643;SDS011;43474;46.510;6.686;2024-01-30T13:41:26;13.18;;;6.82;;
57643;SDS011;43474;46.510;6.686;2024-01-30T13:43:52;9.68;;;6.03;;
57643;SDS011;43474;46.510;6.686;2024-01-30T13:46:19;9.98;;;5.80;;
57643;SDS011;43474;46.510;6.686;2024-01-30T13:48:45;15.13;;;7.00;;
57643;SDS011;43474;46.510;6.686;2024-01-30T13:51:12;12.27;;;6.97;;
57643;SDS011;43474;46.510;6.686;2024-01-30T13:53:39;10.50;;;6.57;;
57643;SDS011;43474;46.510;6.686;2024-01-30T13:56:05;11.60;;;6.57;;
57643;SDS011;43474;46.510;6.686;2024-01-30T13:58:35;11.05;;;6.60;;
57643;SDS011;43474;46.510;6.686;2024-01-30T14:01:02;11.90;;;5.93;;
57643;SDS011;43474;46.510;6.686;2024-01-30T14:03:28;12.10;;;7.32;;
57643;SDS011;43474;46.510;6.686;2024-01-30T14:05:55;12.77;;;6.80;;
57643;SDS011;43474;46.510;6.686;2024-01-30T14:08:21;14.70;;;7.68;;
57643;SDS011;43474;46.510;6.686;2024-01-30T14:10:49;12.05;;;6.75;;
57643;SDS011;43474;46.510;6.686;2024-01-30T14:13:15;12.90;;;7.10;;
57643;SDS011;43474;46.510;6.686;2024-01-30T14:15:41;14.57;;;6.47;;
57643;SDS011;43474;46.510;6.686;2024-01-30T14:18:06;14.77;;;6.90;;
57643;SDS011;43474;46.510;6.686;2024-01-30T14:20:34;12.38;;;6.32;;
57643;SDS011;43474;46.510;6.686;2024-01-30T14:23:00;11.98;;;6.95;;
57643;SDS011;43474;46.510;6.686;2024-01-30T14:25:26;8.70;;;6.03;;
57643;SDS011;43474;46.510;6.686;2024-01-30T14:27:51;15.38;;;7.10;;
57643;SDS011;43474;46.510;6.686;2024-01-30T14:30:17;15.40;;;7.03;;
57643;SDS011;43474;46.510;6.686;2024-01-30T14:32:43;10.23;;;6.18;;
57643;SDS011;43474;46.510;6.686;2024-01-30T14:35:10;10.98;;;5.88;;
57643;SDS011;43474;46.510;6.686;2024-01-30T14:37:37;11.50;;;6.07;;
57643;SDS011;43474;46.510;6.686;2024-01-30T14:40:03;7.80;;;5.50;;